Jeffersonville, Ohio
Current Conditions -  °F | °C
As of 10:56 AM on Friday 31 Oct 2014 (Local Time) from KSGH Reporting Station
Overcast Overcast  
Wind Chill: 39°   Ceiling: 4600
Heat Index: 44°   Visibility: 7mi
Dew Point: 39°   Wind: 9mph
Humidity: 82%   Direction: 230°SW
Pressure: 29.94"   Gusts: NA
Location:  39.65°N, 83.56°W
Report Text: KSGH 311456Z AUTO 23008KT 7SM FEW035 OVC046 07/04 A2994 RMK AO2 58008 T00660038 SLP144
Loading
Personal Weather Stations






























Interactive Weather Map
Tropical Storm Tracking
New forecast layout! Learn more

10-Day Weather Forecast

Advertisements
Track Severe Weather on mobile